createdAt,value
2018-05-26T00:00:50.016Z,1.83
2018-05-26T00:03:16.837Z,2.00
2018-05-26T00:05:43.795Z,1.70
2018-05-26T00:08:11.398Z,1.73
2018-05-26T00:10:38.188Z,2.00
2018-05-26T00:13:05.000Z,1.90
2018-05-26T00:15:37.895Z,2.23
2018-05-26T00:18:05.661Z,2.00
2018-05-26T00:20:32.486Z,1.73
2018-05-26T00:23:02.209Z,1.83
2018-05-26T00:25:30.088Z,1.60
2018-05-26T00:27:57.219Z,1.93
2018-05-26T00:30:24.744Z,2.10
2018-05-26T00:32:52.305Z,2.07
2018-05-26T00:35:19.124Z,2.30
2018-05-26T00:37:45.909Z,2.37
2018-05-26T00:40:12.698Z,1.87
2018-05-26T00:42:39.524Z,2.13
2018-05-26T00:45:06.401Z,1.93
2018-05-26T00:47:33.394Z,2.27
2018-05-26T00:50:00.175Z,2.10
2018-05-26T00:52:26.945Z,1.90
2018-05-26T00:54:53.769Z,2.33
2018-05-26T00:57:21.357Z,2.20
2018-05-26T00:59:48.149Z,2.30
2018-05-26T01:02:15.724Z,2.30
2018-05-26T01:04:42.513Z,2.20
2018-05-26T01:07:09.304Z,2.43
2018-05-26T01:09:36.173Z,2.40
2018-05-26T01:12:02.974Z,2.07
2018-05-26T01:14:30.492Z,2.27
2018-05-26T01:16:57.317Z,2.47
2018-05-26T01:19:24.117Z,2.20
2018-05-26T01:21:50.992Z,2.13
2018-05-26T01:24:17.813Z,2.90
2018-05-26T01:26:45.341Z,2.73
2018-05-26T01:29:12.180Z,2.40
2018-05-26T01:31:38.967Z,2.30
2018-05-26T01:34:05.805Z,2.27
2018-05-26T01:36:33.516Z,2.80
2018-05-26T01:39:00.288Z,2.67
2018-05-26T01:41:27.048Z,2.30
2018-05-26T01:43:54.612Z,2.17
2018-05-26T01:46:21.534Z,2.17
2018-05-26T01:48:48.325Z,2.30
2018-05-26T01:51:15.160Z,2.50
2018-05-26T01:53:41.957Z,2.47
2018-05-26T01:56:08.735Z,1.87
2018-05-26T01:58:35.593Z,2.13
2018-05-26T02:01:02.395Z,2.60
2018-05-26T02:03:29.192Z,2.03
2018-05-26T02:05:56.069Z,2.10
2018-05-26T02:08:22.871Z,2.30
2018-05-26T02:10:49.746Z,2.20
2018-05-26T02:13:16.545Z,2.40
2018-05-26T02:15:44.060Z,2.40
2018-05-26T02:18:10.893Z,2.20
2018-05-26T02:20:37.735Z,2.83
2018-05-26T02:23:05.324Z,2.17
2018-05-26T02:25:32.113Z,2.50
2018-05-26T02:27:58.945Z,2.60
2018-05-26T02:30:25.737Z,2.43
2018-05-26T02:32:52.530Z,2.60
2018-05-26T02:35:19.427Z,2.50
2018-05-26T02:37:46.210Z,2.60
2018-05-26T02:40:14.137Z,2.43
2018-05-26T02:42:40.924Z,3.10
2018-05-26T02:45:08.445Z,2.40
2018-05-26T02:47:35.360Z,3.10
2018-05-26T02:50:02.151Z,3.03
2018-05-26T02:52:29.385Z,2.73
2018-05-26T02:54:56.171Z,2.93
2018-05-26T02:57:23.686Z,2.90
2018-05-26T02:59:51.302Z,2.60
2018-05-26T03:02:18.083Z,2.57
2018-05-26T03:04:51.005Z,2.93
2018-05-26T03:07:24.568Z,2.97
2018-05-26T03:09:58.824Z,2.90
2018-05-26T03:12:32.496Z,3.20
2018-05-26T03:14:59.199Z,3.40
2018-05-26T03:17:32.041Z,2.80
2018-05-26T03:19:59.246Z,3.00
2018-05-26T03:22:26.068Z,3.03
2018-05-26T03:24:52.841Z,3.23
2018-05-26T03:27:19.668Z,3.63
2018-05-26T03:29:46.556Z,2.70
2018-05-26T03:32:14.138Z,3.43
2018-05-26T03:34:41.367Z,3.27
2018-05-26T03:37:08.147Z,3.17
2018-05-26T03:39:34.965Z,3.23
2018-05-26T03:42:01.793Z,3.10
2018-05-26T03:44:29.348Z,3.57
2018-05-26T03:46:56.220Z,2.70
2018-05-26T03:49:22.999Z,3.17
2018-05-26T03:51:49.848Z,3.70
2018-05-26T03:54:16.707Z,4.00
2018-05-26T03:57:02.077Z,3.17
2018-05-26T03:59:39.830Z,3.20
2018-05-26T04:02:06.961Z,3.83
2018-05-26T04:04:33.764Z,3.87
2018-05-26T04:07:00.580Z,3.57
2018-05-26T04:09:28.620Z,3.83
2018-05-26T04:11:55.405Z,3.80
2018-05-26T04:14:22.915Z,3.73
2018-05-26T04:16:50.472Z,3.90
2018-05-26T04:19:18.043Z,3.67
2018-05-26T04:21:44.824Z,3.20
2018-05-26T04:24:12.380Z,3.73
2018-05-26T04:26:39.897Z,3.23
2018-05-26T04:29:06.678Z,3.63
2018-05-26T04:31:33.545Z,3.60
2018-05-26T04:34:00.322Z,3.17
2018-05-26T04:36:27.095Z,3.73
2018-05-26T04:38:53.916Z,4.40
2018-05-26T04:41:20.696Z,3.93
2018-05-26T04:43:47.536Z,4.00
2018-05-26T04:46:15.103Z,3.73
2018-05-26T04:48:42.663Z,3.90
2018-05-26T04:51:10.604Z,4.23
2018-05-26T04:53:39.927Z,3.33
2018-05-26T04:56:06.877Z,3.87
2018-05-26T04:58:34.440Z,3.50
2018-05-26T05:01:01.964Z,4.33
2018-05-26T05:03:28.797Z,3.70
2018-05-26T05:05:55.572Z,3.97
2018-05-26T05:08:22.395Z,3.73
2018-05-26T05:10:49.222Z,3.43
2018-05-26T05:13:15.990Z,4.00
2018-05-26T05:15:42.765Z,3.93
2018-05-26T05:18:10.864Z,4.30
2018-05-26T05:20:37.905Z,3.73
2018-05-26T05:23:04.707Z,4.40
2018-05-26T05:25:31.536Z,4.20
2018-05-26T05:27:58.349Z,3.50
2018-05-26T05:30:25.185Z,4.07
2018-05-26T05:32:52.793Z,3.37
2018-05-26T05:35:19.581Z,3.03
2018-05-26T05:37:46.415Z,3.70
2018-05-26T05:40:13.946Z,3.40
2018-05-26T05:42:40.773Z,3.73
2018-05-26T05:45:08.349Z,3.57
2018-05-26T05:47:35.133Z,3.83
2018-05-26T05:50:02.020Z,3.70
2018-05-26T05:52:28.818Z,3.40
2018-05-26T05:54:55.653Z,3.07
2018-05-26T05:57:22.478Z,3.07
2018-05-26T05:59:49.304Z,3.50
2018-05-26T06:02:16.087Z,3.43
2018-05-26T06:04:42.873Z,3.53
2018-05-26T06:07:09.704Z,3.40
2018-05-26T06:09:36.527Z,3.63
2018-05-26T06:12:03.654Z,3.60
2018-05-26T06:14:30.472Z,3.20
2018-05-26T06:16:57.257Z,3.10
2018-05-26T06:19:24.097Z,3.37
2018-05-26T06:21:50.946Z,3.57
2018-05-26T06:24:17.740Z,3.60
2018-05-26T06:26:44.861Z,3.33
2018-05-26T06:29:11.657Z,3.77
2018-05-26T06:31:39.228Z,3.70
2018-05-26T06:34:06.108Z,3.30
2018-05-26T06:36:32.912Z,3.60
2018-05-26T06:39:00.472Z,3.80
2018-05-26T06:41:28.104Z,3.10
2018-05-26T06:43:54.891Z,4.23
2018-05-26T06:46:22.020Z,3.37
2018-05-26T06:48:49.560Z,2.90
2018-05-26T06:51:16.655Z,3.73
2018-05-26T06:53:43.443Z,3.47
2018-05-26T06:56:10.227Z,3.43
2018-05-26T06:58:37.202Z,4.00
2018-05-26T07:01:03.986Z,3.20
2018-05-26T07:03:30.782Z,3.73
2018-05-26T07:05:57.846Z,3.87
2018-05-26T07:08:24.637Z,3.73
2018-05-26T07:10:51.516Z,3.77
2018-05-26T07:13:18.309Z,4.07
2018-05-26T07:15:45.100Z,4.07
2018-05-26T07:18:12.215Z,4.10
2018-05-26T07:20:38.997Z,3.83
2018-05-26T07:23:05.831Z,3.20
2018-05-26T07:25:32.664Z,3.67
2018-05-26T07:28:00.192Z,3.43
2018-05-26T07:30:26.973Z,3.47
2018-05-26T07:32:53.815Z,3.93
2018-05-26T07:35:20.645Z,4.20
2018-05-26T07:37:48.208Z,3.90
2018-05-26T07:40:15.060Z,4.43
2018-05-26T07:42:42.583Z,3.47
2018-05-26T07:45:09.409Z,3.70
2018-05-26T07:47:36.339Z,4.00
2018-05-26T07:50:03.261Z,3.40
2018-05-26T07:52:30.524Z,4.37
2018-05-26T07:57:31.003Z,3.90
2018-05-26T07:59:58.576Z,3.97
2018-05-26T08:02:25.372Z,3.43
2018-05-26T08:04:52.377Z,3.30
2018-05-26T08:07:19.207Z,3.50
2018-05-26T08:09:46.035Z,3.73
2018-05-26T08:12:12.864Z,3.87
2018-05-26T08:14:39.641Z,3.67
2018-05-26T08:17:06.522Z,3.10
2018-05-26T08:19:33.517Z,3.97
2018-05-26T08:22:00.340Z,3.60
2018-05-26T08:24:27.159Z,4.10
2018-05-26T08:26:54.681Z,3.40
2018-05-26T08:29:22.281Z,4.50
2018-05-26T08:31:49.804Z,3.87
2018-05-26T08:34:16.591Z,4.00
2018-05-26T08:36:43.456Z,3.97
2018-05-26T08:39:10.240Z,3.30
2018-05-26T08:41:37.007Z,3.57
2018-05-26T08:44:04.864Z,3.23
2018-05-26T08:46:31.643Z,3.77
2018-05-26T08:48:58.467Z,3.50
2018-05-26T08:51:26.387Z,3.13
2018-05-26T08:53:53.156Z,3.80
2018-05-26T08:56:19.932Z,3.40
2018-05-26T08:58:46.748Z,3.07
2018-05-26T09:01:13.564Z,3.20
2018-05-26T09:03:40.392Z,3.63
2018-05-26T09:06:07.242Z,3.30
2018-05-26T09:08:34.021Z,3.83
2018-05-26T09:11:00.845Z,3.80
2018-05-26T09:13:27.738Z,3.80
2018-05-26T09:15:54.564Z,3.93
2018-05-26T09:18:22.081Z,3.57
2018-05-26T09:20:48.861Z,3.67
2018-05-26T09:23:16.797Z,3.53
2018-05-26T09:25:44.372Z,3.93
2018-05-26T09:28:11.164Z,3.27
2018-05-26T09:30:38.740Z,3.80
2018-05-26T09:33:05.525Z,3.20
2018-05-26T09:35:32.347Z,2.87
2018-05-26T09:37:59.921Z,3.40
2018-05-26T09:40:26.745Z,3.40
2018-05-26T09:42:53.527Z,3.20
2018-05-26T09:45:26.281Z,3.30
2018-05-26T09:47:53.424Z,2.93
2018-05-26T09:50:20.995Z,3.57
2018-05-26T09:52:47.804Z,3.67
2018-05-26T09:55:14.679Z,3.83
2018-05-26T09:57:41.463Z,4.13
2018-05-26T10:00:08.987Z,3.43
2018-05-26T10:02:35.849Z,3.67
2018-05-26T10:05:02.714Z,3.37
2018-05-26T10:07:30.269Z,3.07
2018-05-26T10:09:57.780Z,3.03
2018-05-26T10:12:24.560Z,3.43
2018-05-26T10:14:51.437Z,4.80
2018-05-26T10:17:18.217Z,3.60
2018-05-26T10:19:44.990Z,3.50
2018-05-26T10:22:11.805Z,3.27
2018-05-26T10:24:38.961Z,8.40
2018-05-26T10:27:05.783Z,3.90
2018-05-26T10:29:32.561Z,3.80
2018-05-26T10:31:59.388Z,4.90
2018-05-26T10:34:26.176Z,3.40
2018-05-26T10:36:53.731Z,4.40
2018-05-26T10:39:21.345Z,3.87
2018-05-26T10:41:48.172Z,3.27
2018-05-26T10:44:14.957Z,3.90
2018-05-26T10:46:41.769Z,3.10
2018-05-26T10:49:08.544Z,5.57
2018-05-26T10:51:35.401Z,8.93
2018-05-26T10:54:03.112Z,5.93
2018-05-26T10:56:29.884Z,3.10
2018-05-26T10:58:56.667Z,3.17
2018-05-26T11:01:23.878Z,3.00
2018-05-26T11:03:51.507Z,3.10
2018-05-26T11:06:18.294Z,6.07
2018-05-26T11:08:45.264Z,3.20
2018-05-26T11:11:12.792Z,3.13
2018-05-26T11:13:39.567Z,6.50
2018-05-26T11:16:06.524Z,4.20
2018-05-26T11:18:33.302Z,3.20
2018-05-26T11:21:00.093Z,4.00
2018-05-26T11:23:27.668Z,10.87
2018-05-26T11:25:55.180Z,3.13
2018-05-26T11:28:22.011Z,5.63
2018-05-26T11:30:48.871Z,3.20
2018-05-26T11:33:15.697Z,5.70
2018-05-26T11:35:42.476Z,3.30
2018-05-26T11:38:09.304Z,3.00
2018-05-26T11:40:37.135Z,3.43
2018-05-26T11:43:03.956Z,3.40
2018-05-26T11:45:36.757Z,3.23
2018-05-26T11:48:03.536Z,3.63
2018-05-26T11:50:30.359Z,3.00
2018-05-26T11:52:57.920Z,3.13
2018-05-26T11:55:24.706Z,3.17
2018-05-26T11:57:51.524Z,3.13
2018-05-26T12:00:18.307Z,3.30
2018-05-26T12:02:45.868Z,3.50
2018-05-26T12:05:12.707Z,2.93
2018-05-26T12:07:40.271Z,3.23
2018-05-26T12:10:07.787Z,3.47
2018-05-26T12:12:34.565Z,3.10
2018-05-26T12:15:02.140Z,3.30
2018-05-26T12:17:28.993Z,3.33
2018-05-26T12:19:55.809Z,3.23
2018-05-26T12:22:22.589Z,3.10
2018-05-26T12:24:49.372Z,2.93
2018-05-26T12:27:16.337Z,3.50
2018-05-26T12:29:43.195Z,3.27
2018-05-26T12:32:10.707Z,2.83
2018-05-26T12:34:37.871Z,2.67
2018-05-26T12:37:04.643Z,3.90
2018-05-26T12:39:31.455Z,3.20
2018-05-26T12:41:59.059Z,2.73
2018-05-26T12:44:26.577Z,3.03
2018-05-26T12:46:53.399Z,3.73
2018-05-26T12:49:20.184Z,3.43
2018-05-26T12:51:47.729Z,3.03
2018-05-26T12:54:14.619Z,3.27
2018-05-26T12:56:41.431Z,3.47
2018-05-26T12:59:08.247Z,2.93
2018-05-26T13:01:35.069Z,2.60
2018-05-26T13:04:01.846Z,3.00
2018-05-26T13:06:28.789Z,2.93
2018-05-26T13:08:55.595Z,2.90
2018-05-26T13:11:22.367Z,2.87
2018-05-26T13:13:49.369Z,3.00
2018-05-26T13:16:16.889Z,3.00
2018-05-26T13:18:43.744Z,3.00
2018-05-26T13:21:10.590Z,2.83
2018-05-26T13:23:37.361Z,2.77
2018-05-26T13:26:04.284Z,2.80
2018-05-26T13:28:31.915Z,2.70
2018-05-26T13:30:58.764Z,2.60
2018-05-26T13:33:25.607Z,2.77
2018-05-26T13:35:52.678Z,2.83
2018-05-26T13:38:19.455Z,3.13
2018-05-26T13:40:46.374Z,3.10
2018-05-26T13:43:13.216Z,2.50
2018-05-26T13:45:40.751Z,2.87
2018-05-26T13:48:07.909Z,2.53
2018-05-26T13:50:34.699Z,3.37
2018-05-26T13:53:01.516Z,3.33
2018-05-26T13:55:28.230Z,3.03
2018-05-26T13:57:55.012Z,2.80
2018-05-26T14:00:22.556Z,2.83
2018-05-26T14:02:49.517Z,2.57
2018-05-26T14:05:17.036Z,2.50
2018-05-26T14:07:43.855Z,3.27
2018-05-26T14:10:10.698Z,2.70
2018-05-26T14:12:37.484Z,3.13
2018-05-26T14:15:04.352Z,2.93
2018-05-26T14:17:31.880Z,2.63
2018-05-26T14:19:58.717Z,2.50
2018-05-26T14:22:25.538Z,3.00
2018-05-26T14:24:52.316Z,2.83
2018-05-26T14:27:19.553Z,2.80
2018-05-26T14:29:46.362Z,2.67
2018-05-26T14:32:13.194Z,3.10
2018-05-26T14:34:40.012Z,3.00
2018-05-26T14:37:06.804Z,2.80
2018-05-26T14:39:33.634Z,2.90
2018-05-26T14:42:00.409Z,2.90
2018-05-26T14:44:28.170Z,2.40
2018-05-26T14:46:54.961Z,3.37
2018-05-26T14:49:22.482Z,3.03
2018-05-26T14:51:49.308Z,2.90
2018-05-26T14:54:16.116Z,2.67
2018-05-26T14:56:42.949Z,2.90
2018-05-26T14:59:10.517Z,2.63
2018-05-26T15:01:38.053Z,2.50
2018-05-26T15:04:04.849Z,2.90
2018-05-26T15:06:31.684Z,2.73
2018-05-26T15:08:58.529Z,3.07
2018-05-26T15:11:25.602Z,2.50
2018-05-26T15:13:52.376Z,2.70
2018-05-26T15:16:19.264Z,2.80
2018-05-26T15:18:46.143Z,2.67
2018-05-26T15:21:13.045Z,2.87
2018-05-26T15:23:39.868Z,2.90
2018-05-26T15:26:07.428Z,2.27
2018-05-26T15:28:35.001Z,2.50
2018-05-26T15:31:02.597Z,2.30
2018-05-26T15:33:29.784Z,2.47
2018-05-26T15:35:56.561Z,2.20
2018-05-26T15:38:23.352Z,3.03
2018-05-26T15:40:50.177Z,2.50
2018-05-26T15:43:16.961Z,2.43
2018-05-26T15:45:43.988Z,2.30
2018-05-26T15:48:10.844Z,2.30
2018-05-26T15:50:37.645Z,2.67
2018-05-26T15:53:04.456Z,2.07
2018-05-26T15:55:32.178Z,2.37
2018-05-26T15:57:59.761Z,2.77
2018-05-26T16:00:26.561Z,2.47
2018-05-26T16:02:53.529Z,2.50
2018-05-26T16:05:20.308Z,2.20
2018-05-26T16:07:48.933Z,2.07
2018-05-26T16:10:15.907Z,2.50
2018-05-26T16:12:42.682Z,2.40
2018-05-26T16:15:15.668Z,2.70
2018-05-26T16:17:42.494Z,2.00
2018-05-26T16:20:09.286Z,2.30
2018-05-26T16:22:36.171Z,2.80
2018-05-26T16:25:03.008Z,2.37
2018-05-26T16:27:29.797Z,2.50
2018-05-26T16:29:57.391Z,2.80
2018-05-26T16:32:24.238Z,2.27
2018-05-26T16:34:51.069Z,2.10
2018-05-26T16:37:17.871Z,2.40
2018-05-26T16:39:44.697Z,2.73
2018-05-26T16:42:11.516Z,2.57
2018-05-26T16:44:38.489Z,2.80
2018-05-26T16:47:06.064Z,2.93
2018-05-26T16:49:32.852Z,2.47
2018-05-26T16:52:00.041Z,2.30
2018-05-26T16:54:26.831Z,2.83
2018-05-26T16:56:54.399Z,2.67
2018-05-26T16:59:21.272Z,2.80
2018-05-26T17:01:48.054Z,2.70
2018-05-26T17:04:14.879Z,2.67
2018-05-26T17:06:41.674Z,3.23
2018-05-26T17:09:08.509Z,3.37
2018-05-26T17:11:35.376Z,3.03
2018-05-26T17:14:02.186Z,3.47
2018-05-26T17:16:29.727Z,3.03
2018-05-26T17:18:56.553Z,3.80
2018-05-26T17:21:23.336Z,4.40
2018-05-26T17:23:50.792Z,4.63
2018-05-26T17:26:18.320Z,3.83
2018-05-26T17:28:45.127Z,4.27
2018-05-26T17:31:12.690Z,4.20
2018-05-26T17:33:39.477Z,4.63
2018-05-26T17:36:06.314Z,3.40
2018-05-26T17:38:33.453Z,3.47
2018-05-26T17:41:00.239Z,3.47
2018-05-26T17:43:27.777Z,3.30
2018-05-26T17:45:54.601Z,2.90
2018-05-26T17:48:21.452Z,2.60
2018-05-26T17:50:48.232Z,2.87
2018-05-26T17:53:15.929Z,2.70
2018-05-26T17:55:42.717Z,2.50
2018-05-26T17:58:09.549Z,2.40
2018-05-26T18:00:36.435Z,2.50
2018-05-26T18:03:03.256Z,2.73
2018-05-26T18:05:30.829Z,2.67
2018-05-26T18:07:58.377Z,2.60
2018-05-26T18:10:25.496Z,2.50
2018-05-26T18:12:53.073Z,2.57
2018-05-26T18:15:25.741Z,2.60
2018-05-26T18:17:52.682Z,2.30
2018-05-26T18:20:23.373Z,2.70
2018-05-26T18:22:50.204Z,2.40
2018-05-26T18:25:17.039Z,2.57
2018-05-26T18:27:43.929Z,2.70
2018-05-26T18:30:10.736Z,2.30
2018-05-26T18:32:38.359Z,2.30
2018-05-26T18:35:05.183Z,2.50
2018-05-26T18:37:32.008Z,2.10
2018-05-26T18:39:59.129Z,2.17
2018-05-26T18:42:26.655Z,2.40
2018-05-26T18:44:53.436Z,2.67
2018-05-26T18:47:21.233Z,2.50
2018-05-26T18:49:48.069Z,2.60
2018-05-26T18:52:14.856Z,2.90
2018-05-26T18:54:41.892Z,1.93
2018-05-26T18:57:08.682Z,2.40
2018-05-26T18:59:36.204Z,2.47
2018-05-26T19:02:03.136Z,2.20
2018-05-26T19:04:29.930Z,2.53
2018-05-26T19:06:57.509Z,3.10
2018-05-26T19:09:24.303Z,2.17
2018-05-26T19:11:51.084Z,2.87
2018-05-26T19:14:18.030Z,2.30
2018-05-26T19:16:45.556Z,2.40
2018-05-26T19:19:12.376Z,2.73
2018-05-26T19:21:39.204Z,2.40
2018-05-26T19:24:06.000Z,2.50
2018-05-26T19:26:33.033Z,2.17
2018-05-26T19:28:59.869Z,2.10
2018-05-26T19:31:26.649Z,2.40
2018-05-26T19:33:54.214Z,2.40
2018-05-26T19:36:21.751Z,2.60
2018-05-26T19:38:48.601Z,2.40
2018-05-26T19:41:16.191Z,2.53
2018-05-26T19:43:43.024Z,2.70
2018-05-26T19:46:10.604Z,2.47
2018-05-26T19:48:37.387Z,2.63
2018-05-26T19:51:04.276Z,2.53
2018-05-26T19:53:31.796Z,2.40
2018-05-26T19:55:58.607Z,2.23
2018-05-26T19:58:25.786Z,2.57
2018-05-26T20:00:52.816Z,2.73
2018-05-26T20:03:19.639Z,2.80
2018-05-26T20:05:46.467Z,2.80
2018-05-26T20:08:14.004Z,2.80
2018-05-26T20:10:41.231Z,2.90
2018-05-26T20:13:08.049Z,3.03
2018-05-26T20:15:34.876Z,2.80
2018-05-26T20:18:01.761Z,2.90
2018-05-26T20:20:28.504Z,2.43
2018-05-26T20:22:55.296Z,2.90
2018-05-26T20:25:22.857Z,2.87
2018-05-26T20:27:49.967Z,2.57
2018-05-26T20:30:20.813Z,3.00
2018-05-26T20:32:47.641Z,2.97
2018-05-26T20:35:14.488Z,2.87
2018-05-26T20:37:42.046Z,3.17
2018-05-26T20:40:09.101Z,3.07
2018-05-26T20:42:36.644Z,2.90
2018-05-26T20:45:03.498Z,3.33
2018-05-26T20:47:30.330Z,2.90
2018-05-26T20:49:57.154Z,3.93
2018-05-26T20:52:23.983Z,4.43
2018-05-26T20:54:50.832Z,3.57
2018-05-26T20:57:17.627Z,4.07
2018-05-26T20:59:44.448Z,3.40
2018-05-26T21:02:11.607Z,3.23
2018-05-26T21:04:39.172Z,3.10
2018-05-26T21:07:05.987Z,3.17
2018-05-26T21:09:33.881Z,11.17
2018-05-26T21:12:00.668Z,11.13
2018-05-26T21:14:28.200Z,7.50
2018-05-26T21:16:55.096Z,8.77
2018-05-26T21:19:21.871Z,8.33
2018-05-26T21:21:48.689Z,5.97
2018-05-26T21:24:15.479Z,6.57
2018-05-26T21:26:42.301Z,2.87
2018-05-26T21:29:09.921Z,3.27
2018-05-26T21:31:36.732Z,3.20
2018-05-26T21:34:03.536Z,3.10
2018-05-26T21:36:30.359Z,3.17
2018-05-26T21:38:57.148Z,2.80
2018-05-26T21:41:23.984Z,2.80
2018-05-26T21:43:50.813Z,3.00
2018-05-26T21:46:17.605Z,3.03
2018-05-26T21:48:45.179Z,3.50
2018-05-26T21:51:11.964Z,3.00
2018-05-26T21:53:39.943Z,3.10
2018-05-26T21:56:06.725Z,3.40
2018-05-26T21:58:34.243Z,3.57
2018-05-26T22:01:01.088Z,3.60
2018-05-26T22:03:27.877Z,3.93
2018-05-26T22:05:54.791Z,4.00
2018-05-26T22:08:21.568Z,4.40
2018-05-26T22:10:48.392Z,3.87
2018-05-26T22:13:15.903Z,4.07
2018-05-26T22:15:42.776Z,3.70
2018-05-26T22:18:09.624Z,3.30
2018-05-26T22:20:36.645Z,3.27
2018-05-26T22:23:03.461Z,3.37
2018-05-26T22:25:30.280Z,3.63
2018-05-26T22:27:57.841Z,3.60
2018-05-26T22:30:24.676Z,3.50
2018-05-26T22:32:51.492Z,3.13
2018-05-26T22:35:18.288Z,3.37
2018-05-26T22:37:45.113Z,3.70
2018-05-26T22:40:12.740Z,3.90
2018-05-26T22:42:40.312Z,3.97
2018-05-26T22:45:07.139Z,3.80
2018-05-26T22:47:34.300Z,3.37
2018-05-26T22:50:01.078Z,3.57
2018-05-26T22:52:28.606Z,3.87
2018-05-26T22:54:56.199Z,4.27
2018-05-26T22:57:23.717Z,4.17
2018-05-26T22:59:50.512Z,4.07
2018-05-26T23:02:18.434Z,3.90
2018-05-26T23:04:45.232Z,4.53
2018-05-26T23:07:12.068Z,4.23
2018-05-26T23:09:39.873Z,4.47
2018-05-26T23:12:06.652Z,4.30
2018-05-26T23:14:33.472Z,4.43
2018-05-26T23:17:00.260Z,3.50
2018-05-26T23:19:27.125Z,4.07
2018-05-26T23:21:53.901Z,4.20
2018-05-26T23:24:20.803Z,4.50
2018-05-26T23:26:47.575Z,4.60
2018-05-26T23:29:14.400Z,4.83
2018-05-26T23:31:41.235Z,4.50
2018-05-26T23:34:08.061Z,4.47
2018-05-26T23:36:35.579Z,4.40
2018-05-26T23:39:02.476Z,4.07
2018-05-26T23:41:30.028Z,4.03
2018-05-26T23:43:56.852Z,5.03
2018-05-26T23:46:23.682Z,4.57
2018-05-26T23:48:50.494Z,5.03
2018-05-26T23:51:17.275Z,4.70
2018-05-26T23:53:44.859Z,5.17
2018-05-26T23:56:11.704Z,4.80
2018-05-26T23:58:39.637Z,4.63
